Buoy 41991

sailwx.info

Track history (hours):
 
Tides and Currents Weather Stations Pressure Air Temp Water Temp Dewpoint Dewpoint Depression Visibility Wind Speed Wind Dir Waves Ship Positions

Drifting buoy 41991

Last reported at 2014-Oct-23 08:59 UTC. Time now 2014-Oct-23 11:05 UTC.
Position N 32°23' W 043°47'.

Water temperature 25.1 ° C

Date/timePositionNaut miles runAvg speedWind from/ knotsBaromVisibWave heightAir tempDewpointWater temp
2014-Oct-23 08:59N 32°23' W 043°47'1 0.6 25.1
2014-Oct-23 07:13N 32°22' W 043°46'0 0.7 25.1
2014-Oct-23 07:08N 32°22' W 043°46'0 0.0 25.1
2014-Oct-23 06:55N 32°22' W 043°46'1 4.4 25.1
2014-Oct-23 06:48N 32°23' W 043°46'0 0.0 25.1
2014-Oct-23 06:38N 32°23' W 043°46'0 0.0 25.1
2014-Oct-23 05:12N 32°23' W 043°46'117.6 25.1
2014-Oct-23 05:07N 32°23' W 043°45'0 0.0 25.1
2014-Oct-23 03:30N 32°23' W 043°45'2 0.8 25.1
2014-Oct-23 01:34N 32°25' W 043°44'0 0.0 25.2
2014-Oct-23 00:45N 32°25' W 043°44'1 1.4 25.2
2014-Oct-22 23:55N 32°25' W 043°46'0 0.0 25.2
2014-Oct-22 23:47N 32°25' W 043°46'0 0.0 25.2
2014-Oct-22 22:59N 32°25' W 043°46'144.4 25.2
2014-Oct-22 22:58N 32°26' W 043°45'1 2.8 25.2
2014-Oct-22 22:45N 32°25' W 043°45'1 0.6 25.2
2014-Oct-22 20:56N 32°25' W 043°46'0 0.0 25.2
2014-Oct-22 20:44N 32°25' W 043°46'0 0.0 25.2
2014-Oct-22 20:30N 32°25' W 043°46'2 1.5 25.2
2014-Oct-22 19:22N 32°25' W 043°48'0 0.2 25.2
2014-Oct-22 18:53N 32°25' W 043°48'0 0.1 25.2
2014-Oct-22 18:26N 32°25' W 043°48'0 0.0 25.2
2014-Oct-22 17:10N 32°25' W 043°48'1 3.2 25.4
2014-Oct-22 16:50N 32°25' W 043°47'2 0.9 25.4
2014-Oct-22 15:09N 32°24' W 043°49'1 1.2 25.2
2014-Oct-22 14:13N 32°23' W 043°49'0 0.0 25.2
2014-Oct-22 14:06N 32°23' W 043°49'0 0.0
2014-Oct-22 12:28N 32°23' W 043°49'0 0.0 25.2
2014-Oct-22 11:43N 32°23' W 043°49'1 8.5 25.2
2014-Oct-22 11:38N 32°23' W 043°48'0 0.0 25.2
2014-Oct-22 10:27N 32°23' W 043°48'1 0.7 25.1
2014-Oct-22 09:23N 32°23' W 043°48'0 0.5 25.1
2014-Oct-22 09:07N 32°23' W 043°48'1 4.0 25.1
2014-Oct-22 08:59N 32°23' W 043°48'0 1.2 25.1
2014-Oct-22 08:50N 32°23' W 043°48'0 0.2 25.1
2014-Oct-22 07:44N 32°23' W 043°48'0 0.5 25.1
2014-Oct-22 07:27N 32°23' W 043°48'0 0.5 25.1
2014-Oct-22 07:21N 32°23' W 043°48'0 1.9 25.1
2014-Oct-22 07:11N 32°22' W 043°48'0 3.1 25.1
2014-Oct-22 07:05N 32°23' W 043°48'1 6.3 25.1
2014-Oct-22 06:58N 32°22' W 043°47'0 0.0 25.1
2014-Oct-22 05:41N 32°22' W 043°47'0 0.0
2014-Oct-22 05:24N 32°22' W 043°47'1 0.6 25.1
2014-Oct-22 03:44N 32°23' W 043°48'0 3.5 25.2
2014-Oct-22 03:37N 32°23' W 043°47'0 0.0 25.2
2014-Oct-22 01:50N 32°23' W 043°47'0 0.1 25.2
2014-Oct-22 01:00N 32°23' W 043°48'0 0.6 25.2
2014-Oct-22 00:13N 32°24' W 043°47'117.0 25.2
2014-Oct-22 00:08N 32°24' W 043°49'0 0.4 25.2
2014-Oct-21 23:25N 32°24' W 043°49'0 1.0 25.2
2014-Oct-21 23:13N 32°24' W 043°49'1 1.2 25.2
2014-Oct-21 22:33N 32°24' W 043°49'111.2 25.2
2014-Oct-21 22:28N 32°24' W 043°50'0 0.0 25.2
2014-Oct-21 21:38N 32°24' W 043°50'0 0.0 25.3
2014-Oct-21 20:41N 32°24' W 043°50'230.2 25.3
2014-Oct-21 20:38N 32°23' W 043°52'0 0.7 25.3
2014-Oct-21 19:56N 32°23' W 043°52'0 4.1 25.4
2014-Oct-21 19:49N 32°23' W 043°52'1 3.3 25.4
2014-Oct-21 19:28N 32°22' W 043°52'0 0.0 25.4
2014-Oct-21 19:05N 32°22' W 043°52'0 0.0 25.4
2014-Oct-21 18:59N 32°22' W 043°52'0 0.0 25.4
2014-Oct-21 18:56N 32°22' W 043°52'0 0.0 25.4
2014-Oct-21 18:36N 32°22' W 043°52'0 0.0 25.4
2014-Oct-21 17:45N 32°22' W 043°52'0 1.1 25.4
2014-Oct-21 17:21N 32°22' W 043°52'0 0.2 25.4
2014-Oct-21 16:58N 32°22' W 043°52'1 0.9 25.4
2014-Oct-21 15:18N 32°20' W 043°53'1 0.5 25.4
2014-Oct-21 13:47N 32°20' W 043°53'1 1.0 25.4
2014-Oct-21 12:59N 32°20' W 043°54'219.0 25.4
2014-Oct-21 12:52N 32°18' W 043°52'1 1.4 25.4
2014-Oct-21 12:07N 32°19' W 043°53'1 7.8 25.4
2014-Oct-21 11:59N 32°18' W 043°52'0 0.1 25.4
2014-Oct-21 09:43N 32°18' W 043°52'0 0.0 25.4
2014-Oct-21 09:18N 32°18' W 043°52'0 5.3 25.4
2014-Oct-21 09:13N 32°18' W 043°52'0 0.0 25.4
2014-Oct-21 08:09N 32°18' W 043°52'0 0.3 25.4
2014-Oct-21 07:42N 32°18' W 043°52'0 1.6 25.4
2014-Oct-21 07:33N 32°18' W 043°52'0 0.0 25.4
2014-Oct-21 07:13N 32°18' W 043°52'110.9 25.4
2014-Oct-21 07:10N 32°18' W 043°51'0 0.0 25.4
2014-Oct-21 05:58N 32°18' W 043°51'0 0.7 25.4
2014-Oct-21 05:30N 32°18' W 043°51'0 0.0 25.4
2014-Oct-21 03:57N 32°18' W 043°51'0 0.0 25.4
2014-Oct-21 03:54N 32°18' W 043°51'1 0.4 25.4
2014-Oct-21 01:25N 32°19' W 043°52'1 0.6 25.4
2014-Oct-21 00:28N 32°19' W 043°52'1 1.0 25.4
2014-Oct-20 23:46N 32°19' W 043°53'0 1.2 25.4
2014-Oct-20 23:40N 32°19' W 043°53'1 0.8 25.4
2014-Oct-20 22:56N 32°19' W 043°53'0 3.9 25.4
2014-Oct-20 22:52N 32°19' W 043°54'0 0.0 25.4
2014-Oct-20 22:09N 32°19' W 043°54'0 3.9 25.4
2014-Oct-20 22:02N 32°19' W 043°54'0 0.0 25.4
2014-Oct-20 21:32N 32°19' W 043°54'1 1.0 25.4
2014-Oct-20 20:54N 32°19' W 043°55'1 8.4 25.4
2014-Oct-20 20:49N 32°19' W 043°56'0 0.0 25.4
2014-Oct-20 20:22N 32°19' W 043°56'0 0.0 25.4
2014-Oct-20 19:54N 32°19' W 043°56'0 0.4 25.3
2014-Oct-20 19:13N 32°19' W 043°56'0 6.1 25.3
2014-Oct-20 19:11N 32°19' W 043°56'1 1.2 25.3
2014-Oct-20 18:10N 32°19' W 043°57'2 3.3 25.3
2014-Oct-20 17:35N 32°18' W 043°55'0 0.3 25.3
2014-Oct-20 17:12N 32°18' W 043°56'1 0.8 25.3
2014-Oct-20 15:32N 32°17' W 043°57'2 1.2 25.3
2014-Oct-20 14:06N 32°15' W 043°55'1 0.7 25.3
2014-Oct-20 13:11N 32°15' W 043°56'0 0.0 25.3
2014-Oct-20 12:24N 32°15' W 043°56'1 8.7 25.3
2014-Oct-20 12:17N 32°14' W 043°55'0 0.0 25.3
2014-Oct-20 11:38N 32°14' W 043°55'0 1.6 25.3
2014-Oct-20 11:29N 32°14' W 043°55'0 0.0
2014-Oct-20 10:12N 32°14' W 043°55'0 7.0 25.3
2014-Oct-20 10:09N 32°14' W 043°55'0 0.6 25.3
2014-Oct-20 09:53N 32°14' W 043°55'1 1.3 25.3
2014-Oct-20 09:28N 32°14' W 043°54'1 1.3 25.3
2014-Oct-20 08:33N 32°14' W 043°53'1 3.5 25.3
2014-Oct-20 08:13N 32°14' W 043°54'1 2.5 25.3
2014-Oct-20 07:44N 32°15' W 043°53'0 0.0 25.4
2014-Oct-20 07:25N 32°15' W 043°53'0 0.0 25.4
2014-Oct-20 06:53N 32°15' W 043°53'0 0.8 25.4
2014-Oct-20 06:30N 32°15' W 043°53'0 0.0
2014-Oct-20 06:08N 32°15' W 043°53'0 0.9 25.4
2014-Oct-20 05:43N 32°15' W 043°53'115.6 25.4
2014-Oct-20 05:40N 32°16' W 043°53'2 0.4 25.4
2014-Oct-20 01:42N 32°17' W 043°54'110.1 25.4
2014-Oct-20 01:39N 32°17' W 043°55'0 0.2 25.4
2014-Oct-20 00:54N 32°17' W 043°55'1 1.8 25.4
2014-Oct-20 00:06N 32°17' W 043°56'1 5.7 25.4
2014-Oct-19 23:59N 32°17' W 043°56'0 0.0 25.4
2014-Oct-19 23:18N 32°17' W 043°56'2 2.0 25.4
2014-Oct-19 22:24N 32°16' W 043°58'1 2.5 25.4
2014-Oct-19 21:52N 32°15' W 043°59'0 0.0 25.4
2014-Oct-19 20:52N 32°15' W 043°59'1 1.6 25.4
2014-Oct-19 20:18N 32°14' W 043°59'1 9.3 25.4
2014-Oct-19 20:12N 32°15' W 043°59'2 1.9 25.4
2014-Oct-19 19:23N 32°14' W 044°00'0 0.0 25.4
2014-Oct-19 18:36N 32°14' W 044°00'1 1.3 25.4
2014-Oct-19 17:44N 32°13' W 044°00'0 0.6 25.4
2014-Oct-19 17:23N 32°13' W 044°00'2 0.9 25.4
2014-Oct-19 15:41N 32°11' W 043°60'2 1.5 25.4
2014-Oct-19 14:27N 32°10' W 043°58'1 0.9 25.4
2014-Oct-19 13:38N 32°10' W 043°57'0 0.1 25.4
2014-Oct-19 12:48N 32°10' W 043°57'0 0.9 25.4
2014-Oct-19 12:41N 32°10' W 043°57'0 7.1 25.4
2014-Oct-19 12:38N 32°10' W 043°57'1 1.1 25.4
2014-Oct-19 11:51N 32°11' W 043°56'0 0.0 25.4
2014-Oct-19 10:58N 32°11' W 043°56'1 1.5 25.3
2014-Oct-19 10:35N 32°11' W 043°56'1 2.7 25.4
2014-Oct-19 10:22N 32°11' W 043°56'1 0.9 25.4
2014-Oct-19 09:41N 32°11' W 043°56'1 1.9 25.4
2014-Oct-19 08:55N 32°12' W 043°55'0 0.0 25.4
2014-Oct-19 08:46N 32°12' W 043°55'0 0.0 25.4
2014-Oct-19 08:00N 32°12' W 043°55'1 0.8 25.4
2014-Oct-19 07:20N 32°12' W 043°55'0 1.4 25.4
2014-Oct-19 07:04N 32°12' W 043°55'1 1.7 25.4
2014-Oct-19 06:21N 32°13' W 043°55'0 1.1 25.4
2014-Oct-19 05:58N 32°13' W 043°55'0 4.1 25.4
2014-Oct-19 05:55N 32°13' W 043°55'119.9 25.4
2014-Oct-19 05:51N 32°14' W 043°56'0 0.0 25.4
2014-Oct-19 04:13N 32°14' W 043°56'2 1.1 25.4
2014-Oct-19 01:59N 32°15' W 043°58'0 0.3 25.4
2014-Oct-19 01:17N 32°16' W 043°58'0 0.0 25.4
2014-Oct-19 00:27N 32°16' W 043°58'2 1.8 25.4
2014-Oct-18 23:37N 32°15' W 044°00'0 1.8 25.4
2014-Oct-18 23:30N 32°15' W 044°00'0 0.0 25.4
2014-Oct-18 23:10N 32°15' W 044°00'1 1.8 25.4
2014-Oct-18 22:47N 32°16' W 044°01'317.1 25.4
2014-Oct-18 22:38N 32°14' W 044°03'0 0.0 25.4
2014-Oct-18 21:32N 32°14' W 044°03'0 0.1 25.4
2014-Oct-18 20:42N 32°14' W 044°03'1 0.9 25.4
2014-Oct-18 19:47N 32°13' W 044°04'211.2 25.4
2014-Oct-18 19:38N 32°12' W 044°05'0 0.0 25.4
2014-Oct-18 18:58N 32°12' W 044°05'0 0.0 25.4
2014-Oct-18 17:58N 32°12' W 044°05'1 2.0 25.4
2014-Oct-18 17:33N 32°11' W 044°04'114.3 25.4
2014-Oct-18 17:27N 32°10' W 044°04'0 0.0 25.4
2014-Oct-18 15:53N 32°10' W 044°04'2 1.4 25.4
2014-Oct-18 14:45N 32°09' W 044°02'0 0.0 25.4
2014-Oct-18 13:57N 32°09' W 044°02'1 1.2 25.4
2014-Oct-18 12:58N 32°09' W 044°01'1 1.1 25.4
2014-Oct-18 12:12N 32°10' W 043°60'0 0.2 25.4
2014-Oct-18 11:27N 32°10' W 043°60'222.8 25.3
2014-Oct-18 11:22N 32°11' W 043°58'0 0.1 25.3
2014-Oct-18 09:26N 32°11' W 043°58'1 7.4 25.3
2014-Oct-18 09:17N 32°12' W 043°58'122.2 25.3
2014-Oct-18 09:14N 32°11' W 043°58'1 1.1 25.3
2014-Oct-18 08:11N 32°12' W 043°58'1 6.6 25.3
2014-Oct-18 08:06N 32°13' W 043°58'0 0.0 25.3
2014-Oct-18 07:41N 32°13' W 043°58'0 2.5 25.3
2014-Oct-18 07:35N 32°13' W 043°58'1 1.2 25.3
2014-Oct-18 06:33N 32°14' W 043°59'0 5.9 25.3
2014-Oct-18 06:28N 32°14' W 043°59'0 0.0 25.3
2014-Oct-18 06:10N 32°14' W 043°59'0 0.0 25.3
2014-Oct-18 06:06N 32°14' W 043°59'245.4 25.3
2014-Oct-18 06:03N 32°15' W 044°01'3 0.7 25.3
2014-Oct-18 01:37N 32°16' W 044°05'0 0.0 25.4
2014-Oct-18 00:45N 32°16' W 044°05'2 2.4 25.4
2014-Oct-17 23:52N 32°15' W 044°08'0 0.0 25.4
2014-Oct-17 23:07N 32°15' W 044°08'215.1 25.4
2014-Oct-17 22:58N 32°13' W 044°09'0 0.0 25.4
2014-Oct-17 22:14N 32°13' W 044°09'0 0.0 25.4
2014-Oct-17 21:06N 32°13' W 044°09'1 1.4 25.4
2014-Oct-17 20:16N 32°12' W 044°10'0 0.0 25.4
2014-Oct-17 19:49N 32°12' W 044°10'1 3.3 25.4
2014-Oct-17 19:28N 32°12' W 044°11'1 0.6 25.4
2014-Oct-17 18:09N 32°11' W 044°10'0 2.6 25.4
2014-Oct-17 18:06N 32°11' W 044°10'2 5.7 25.4
2014-Oct-17 17:44N 32°09' W 044°09'0 0.0 25.4
2014-Oct-17 16:05N 32°09' W 044°09'2 1.6 25.4
2014-Oct-17 15:04N 32°09' W 044°07'0 0.0 25.4
2014-Oct-17 14:19N 32°09' W 044°07'1 0.5 25.4
2014-Oct-17 12:43N 32°10' W 044°06'1 6.6 25.3
2014-Oct-17 12:32N 32°11' W 044°05'0 0.1 25.3
2014-Oct-17 11:44N 32°11' W 044°05'236.3 25.3
2014-Oct-17 11:41N 32°12' W 044°05'0 0.0 25.3
2014-Oct-17 09:59N 32°12' W 044°05'0 0.0 25.3
2014-Oct-17 09:50N 32°12' W 044°05'221.7 25.3
2014-Oct-17 09:45N 32°14' W 044°05'0 0.0 25.3
2014-Oct-17 08:26N 32°14' W 044°05'0 1.6 25.3
2014-Oct-17 08:23N 32°14' W 044°05'236.1 25.3
2014-Oct-17 08:19N 32°16' W 044°08'211.7 25.3
2014-Oct-17 08:08N 32°14' W 044°05'2128.6 25.3
2014-Oct-17 08:07N 32°16' W 044°08'1 0.4 25.3
2014-Oct-17 06:43N 32°16' W 044°08'0 0.0 25.3
2014-Oct-17 06:21N 32°16' W 044°08'318.7 25.3
2014-Oct-17 06:12N 32°17' W 044°11'0 0.0 25.3
2014-Oct-17 04:42N 32°17' W 044°11'0 0.9 25.3
2014-Oct-17 04:38N 32°17' W 044°11'543.1 25.3
2014-Oct-17 04:31N 32°17' W 044°17'0 0.0 25.3
2014-Oct-17 01:52N 32°17' W 044°17'0 0.0 25.3
2014-Oct-17 01:08N 32°17' W 044°17'1 4.0 25.3
2014-Oct-17 00:59N 32°17' W 044°18'2 2.5 25.3
2014-Oct-17 00:19N 32°16' W 044°19'0 0.0 25.3
2014-Oct-16 23:28N 32°16' W 044°19'218.0 25.3
2014-Oct-16 23:21N 32°15' W 044°21'0 0.0 25.3
2014-Oct-16 22:38N 32°15' W 044°21'0 0.0 25.3
2014-Oct-16 22:34N 32°15' W 044°21'0 0.0 25.3
2014-Oct-16 21:30N 32°15' W 044°21'1 1.4 25.3
2014-Oct-16 20:45N 32°14' W 044°21'2 2.3 25.3
2014-Oct-16 19:59N 32°12' W 044°23'0 0.0 25.3
2014-Oct-16 18:14N 32°12' W 044°23'0 4.4 25.4
2014-Oct-16 18:08N 32°12' W 044°22'2 0.3 25.4
2014-Oct-16 12:08N 32°13' W 044°20'0 3.9 25.2
2014-Oct-16 12:05N 32°13' W 044°20'222.5 25.2
2014-Oct-16 11:59N 32°15' W 044°21'0 0.0 25.2
2014-Oct-16 11:11N 32°15' W 044°21'0 0.0 25.2
2014-Oct-16 10:18N 32°15' W 044°21'4 2.3 25.2
2014-Oct-16 08:29N 32°18' W 044°23'0 0.3 25.2
2014-Oct-16 06:54N 32°18' W 044°23'3 1.6 25.2
2014-Oct-16 04:53N 32°19' W 044°27'5 1.5 25.1
2014-Oct-16 01:23N 32°18' W 044°33'1 1.6 25.1
2014-Oct-16 00:40N 32°17' W 044°34'3 1.1 25.1
2014-Oct-15 22:06N 32°14' W 044°34'1 0.7 25.2
2014-Oct-15 20:11N 32°13' W 044°35'0 0.1 25.2
2014-Oct-15 18:31N 32°13' W 044°35'1 3.3 25.2
2014-Oct-15 18:06N 32°14' W 044°33'1 0.5 25.2
2014-Oct-15 16:28N 32°13' W 044°33'0 7.6 25.2
2014-Oct-15 16:26N 32°13' W 044°32'1 0.8 25.2
2014-Oct-15 14:44N 32°14' W 044°31'1 1.1 25.2
2014-Oct-15 13:24N 32°15' W 044°30'1 4.6 25.2
2014-Oct-15 13:13N 32°16' W 044°30'0 0.0 25.2
2014-Oct-15 12:29N 32°16' W 044°30'0 3.8 25.2
2014-Oct-15 12:25N 32°16' W 044°30'236.5 25.2
2014-Oct-15 12:22N 32°18' W 044°29'3 1.8 25.2
2014-Oct-15 10:36N 32°21' W 044°31'0 0.0 25.2
2014-Oct-15 09:11N 32°21' W 044°31'1 2.4 25.2
2014-Oct-15 08:56N 32°21' W 044°30'1 6.3 25.2
2014-Oct-15 08:46N 32°21' W 044°31'3 1.7 25.2
2014-Oct-15 07:06N 32°23' W 044°34'1 5.2 25.2
2014-Oct-15 06:59N 32°23' W 044°34'0 0.0 25.2
2014-Oct-15 06:45N 32°23' W 044°34'317.1 25.2
2014-Oct-15 06:36N 32°23' W 044°37'3 1.0 25.2
2014-Oct-15 03:18N 32°22' W 044°41'1 0.7 25.3
2014-Oct-15 01:43N 32°21' W 044°41'1 1.7 25.3
2014-Oct-15 00:55N 32°20' W 044°42'0 0.0 25.3
2014-Oct-15 00:10N 32°20' W 044°42'0 0.0 25.3
2014-Oct-14 23:31N 32°20' W 044°42'1 2.5 25.4
2014-Oct-14 23:12N 32°19' W 044°42'0 0.0 25.4
2014-Oct-14 22:29N 32°19' W 044°42'2 1.3 25.4
2014-Oct-14 20:40N 32°18' W 044°40'1 0.6 25.4
2014-Oct-14 18:58N 32°18' W 044°39'0 1.1 25.5
2014-Oct-14 18:44N 32°18' W 044°39'1 2.3 25.5
2014-Oct-14 18:14N 32°18' W 044°38'4127.8 25.5
2014-Oct-14 18:12N 32°21' W 044°34'0 0.0 25.5
2014-Oct-14 16:37N 32°21' W 044°34'0 0.0 25.5
2014-Oct-14 14:56N 32°21' W 044°34'2 5.3 25.6
2014-Oct-14 14:29N 32°24' W 044°33'0 0.0 25.7
2014-Oct-14 13:41N 32°24' W 044°33'324.7 25.7
2014-Oct-14 13:34N 32°26' W 044°34'0 0.0 25.7
2014-Oct-14 12:47N 32°26' W 044°34'0 0.0 25.7
2014-Oct-14 12:42N 32°26' W 044°34'2 2.1 25.7
2014-Oct-14 11:56N 32°28' W 044°35'3 3.7 25.7
2014-Oct-14 11:09N 32°30' W 044°37'0 0.1 25.7
2014-Oct-14 09:24N 32°30' W 044°37'1 5.4 25.8
2014-Oct-14 09:13N 32°31' W 044°38'0 0.0
2014-Oct-14 08:59N 32°31' W 044°38'0 1.5 25.9
2014-Oct-14 08:57N 32°31' W 044°38'112.8 25.9
2014-Oct-14 08:50N 32°31' W 044°40'0 0.0 25.9
2014-Oct-14 07:58N 32°31' W 044°40'1 4.1 25.9
2014-Oct-14 07:42N 32°32' W 044°41'1 1.3 25.9
2014-Oct-14 07:17N 32°32' W 044°41'1 2.5 25.9
2014-Oct-14 06:54N 32°32' W 044°42'5 3.1 25.9
2014-Oct-14 05:13N 32°30' W 044°48'0 0.0 26.0
2014-Oct-14 05:04N 32°30' W 044°48'2 1.3 26.0
2014-Oct-14 03:27N 32°30' W 044°50'0 0.0 26.0
2014-Oct-14 02:07N 32°30' W 044°50'1 1.7 26.1
2014-Oct-14 01:17N 32°30' W 044°52'0 0.0 26.1
2014-Oct-14 00:27N 32°30' W 044°52'3 4.0 26.1
2014-Oct-13 23:41N 32°30' W 044°56'0 0.0 26.1
2014-Oct-13 23:32N 32°30' W 044°56'0 0.0 26.1
2014-Oct-13 22:49N 32°30' W 044°56'0 0.0 26.1
2014-Oct-13 22:44N 32°30' W 044°56'0 0.0 26.1
2014-Oct-13 22:30N 32°30' W 044°56'0 0.0 26.1
2014-Oct-13 21:06N 32°30' W 044°56'0 0.9 26.2
2014-Oct-13 20:34N 32°30' W 044°56'1 0.9 26.2
2014-Oct-13 19:26N 32°30' W 044°57'1 1.8 26.3
2014-Oct-13 18:54N 32°29' W 044°59'1 2.5 26.3
2014-Oct-13 18:23N 32°30' W 044°60'0 0.0 26.3
2014-Oct-13 17:41N 32°30' W 044°60'0 0.5 26.3
2014-Oct-13 17:12N 32°30' W 044°60'1 1.6 26.3
2014-Oct-13 16:49N 32°30' W 044°59'2 1.4 26.3
2014-Oct-13 15:07N 32°30' W 045°02'1 1.7 26.2
2014-Oct-13 14:49N 32°30' W 045°02'0 0.1 26.2
2014-Oct-13 14:00N 32°30' W 045°02'2 0.9 26.2
2014-Oct-13 12:21N 32°30' W 045°04'1 4.3 26.2
2014-Oct-13 12:13N 32°30' W 045°05'0 0.2
2014-Oct-13 11:28N 32°30' W 045°04'227.1 26.2
2014-Oct-13 11:24N 32°31' W 045°06'0 0.0 26.2
2014-Oct-13 10:13N 32°31' W 045°06'0 0.0 26.2
2014-Oct-13 09:48N 32°31' W 045°06'1 9.3 26.2
2014-Oct-13 09:43N 32°31' W 045°07'0 0.1 26.2
2014-Oct-13 09:09N 32°31' W 045°07'111.7 26.2
2014-Oct-13 09:02N 32°31' W 045°09'   26.2
Track history (hours):
 
Tides and Currents Weather Stations Pressure Air Temp Water Temp Dewpoint Dewpoint Depression Visibility Wind Speed Wind Dir Waves Ship Positions

Drifting buoy 41991

Last reported at 2014-Oct-23 08:59 UTC. Time now 2014-Oct-23 11:05 UTC.
Position N 32°23' W 043°47'.

Water temperature 25.1 ° C

Date/timePositionNaut miles runAvg speedWind from/ knotsBaromVisibWave heightAir tempDewpointWater temp
2014-Oct-23 08:59N 32°23' W 043°47'1 0.6 25.1
2014-Oct-23 07:13N 32°22' W 043°46'0 0.7 25.1
2014-Oct-23 07:08N 32°22' W 043°46'0 0.0 25.1
2014-Oct-23 06:55N 32°22' W 043°46'1 4.4 25.1
2014-Oct-23 06:48N 32°23' W 043°46'0 0.0 25.1
2014-Oct-23 06:38N 32°23' W 043°46'0 0.0 25.1
2014-Oct-23 05:12N 32°23' W 043°46'117.6 25.1
2014-Oct-23 05:07N 32°23' W 043°45'0 0.0 25.1
2014-Oct-23 03:30N 32°23' W 043°45'2 0.8 25.1
2014-Oct-23 01:34N 32°25' W 043°44'0 0.0 25.2
2014-Oct-23 00:45N 32°25' W 043°44'1 1.4 25.2
2014-Oct-22 23:55N 32°25' W 043°46'0 0.0 25.2
2014-Oct-22 23:47N 32°25' W 043°46'0 0.0 25.2
2014-Oct-22 22:59N 32°25' W 043°46'144.4 25.2
2014-Oct-22 22:58N 32°26' W 043°45'1 2.8 25.2
2014-Oct-22 22:45N 32°25' W 043°45'1 0.6 25.2
2014-Oct-22 20:56N 32°25' W 043°46'0 0.0 25.2
2014-Oct-22 20:44N 32°25' W 043°46'0 0.0 25.2
2014-Oct-22 20:30N 32°25' W 043°46'2 1.5 25.2
2014-Oct-22 19:22N 32°25' W 043°48'0 0.2 25.2
2014-Oct-22 18:53N 32°25' W 043°48'0 0.1 25.2
2014-Oct-22 18:26N 32°25' W 043°48'0 0.0 25.2
2014-Oct-22 17:10N 32°25' W 043°48'1 3.2 25.4
2014-Oct-22 16:50N 32°25' W 043°47'2 0.9 25.4
2014-Oct-22 15:09N 32°24' W 043°49'1 1.2 25.2
2014-Oct-22 14:13N 32°23' W 043°49'0 0.0 25.2
2014-Oct-22 14:06N 32°23' W 043°49'0 0.0
2014-Oct-22 12:28N 32°23' W 043°49'0 0.0 25.2
2014-Oct-22 11:43N 32°23' W 043°49'1 8.5 25.2
2014-Oct-22 11:38N 32°23' W 043°48'0 0.0 25.2
2014-Oct-22 10:27N 32°23' W 043°48'1 0.7 25.1
2014-Oct-22 09:23N 32°23' W 043°48'0 0.5 25.1
2014-Oct-22 09:07N 32°23' W 043°48'1 4.0 25.1
2014-Oct-22 08:59N 32°23' W 043°48'0 1.2 25.1
2014-Oct-22 08:50N 32°23' W 043°48'0 0.2 25.1
2014-Oct-22 07:44N 32°23' W 043°48'0 0.5 25.1
2014-Oct-22 07:27N 32°23' W 043°48'0 0.5 25.1
2014-Oct-22 07:21N 32°23' W 043°48'0 1.9 25.1
2014-Oct-22 07:11N 32°22' W 043°48'0 3.1 25.1
2014-Oct-22 07:05N 32°23' W 043°48'1 6.3 25.1
2014-Oct-22 06:58N 32°22' W 043°47'0 0.0 25.1
2014-Oct-22 05:41N 32°22' W 043°47'0 0.0
2014-Oct-22 05:24N 32°22' W 043°47'1 0.6 25.1
2014-Oct-22 03:44N 32°23' W 043°48'0 3.5 25.2
2014-Oct-22 03:37N 32°23' W 043°47'0 0.0 25.2
2014-Oct-22 01:50N 32°23' W 043°47'0 0.1 25.2
2014-Oct-22 01:00N 32°23' W 043°48'0 0.6 25.2
2014-Oct-22 00:13N 32°24' W 043°47'117.0 25.2
2014-Oct-22 00:08N 32°24' W 043°49'0 0.4 25.2
2014-Oct-21 23:25N 32°24' W 043°49'0 1.0 25.2
2014-Oct-21 23:13N 32°24' W 043°49'1 1.2 25.2
2014-Oct-21 22:33N 32°24' W 043°49'111.2 25.2
2014-Oct-21 22:28N 32°24' W 043°50'0 0.0 25.2
2014-Oct-21 21:38N 32°24' W 043°50'0 0.0 25.3
2014-Oct-21 20:41N 32°24' W 043°50'230.2 25.3
2014-Oct-21 20:38N 32°23' W 043°52'0 0.7 25.3
2014-Oct-21 19:56N 32°23' W 043°52'0 4.1 25.4
2014-Oct-21 19:49N 32°23' W 043°52'1 3.3 25.4
2014-Oct-21 19:28N 32°22' W 043°52'0 0.0 25.4
2014-Oct-21 19:05N 32°22' W 043°52'0 0.0 25.4
2014-Oct-21 18:59N 32°22' W 043°52'0 0.0 25.4
2014-Oct-21 18:56N 32°22' W 043°52'0 0.0 25.4
2014-Oct-21 18:36N 32°22' W 043°52'0 0.0 25.4
2014-Oct-21 17:45N 32°22' W 043°52'0 1.1 25.4
2014-Oct-21 17:21N 32°22' W 043°52'0 0.2 25.4
2014-Oct-21 16:58N 32°22' W 043°52'1 0.9 25.4
2014-Oct-21 15:18N 32°20' W 043°53'1 0.5 25.4
2014-Oct-21 13:47N 32°20' W 043°53'1 1.0 25.4
2014-Oct-21 12:59N 32°20' W 043°54'219.0 25.4
2014-Oct-21 12:52N 32°18' W 043°52'1 1.4 25.4
2014-Oct-21 12:07N 32°19' W 043°53'1 7.8 25.4
2014-Oct-21 11:59N 32°18' W 043°52'0 0.1 25.4
2014-Oct-21 09:43N 32°18' W 043°52'0 0.0 25.4
2014-Oct-21 09:18N 32°18' W 043°52'0 5.3 25.4
2014-Oct-21 09:13N 32°18' W 043°52'0 0.0 25.4
2014-Oct-21 08:09N 32°18' W 043°52'0 0.3 25.4
2014-Oct-21 07:42N 32°18' W 043°52'0 1.6 25.4
2014-Oct-21 07:33N 32°18' W 043°52'0 0.0 25.4
2014-Oct-21 07:13N 32°18' W 043°52'110.9 25.4
2014-Oct-21 07:10N 32°18' W 043°51'0 0.0 25.4
2014-Oct-21 05:58N 32°18' W 043°51'0 0.7 25.4
2014-Oct-21 05:30N 32°18' W 043°51'0 0.0 25.4
2014-Oct-21 03:57N 32°18' W 043°51'0 0.0 25.4
2014-Oct-21 03:54N 32°18' W 043°51'1 0.4 25.4
2014-Oct-21 01:25N 32°19' W 043°52'1 0.6 25.4
2014-Oct-21 00:28N 32°19' W 043°52'1 1.0 25.4
2014-Oct-20 23:46N 32°19' W 043°53'0 1.2 25.4
2014-Oct-20 23:40N 32°19' W 043°53'1 0.8 25.4
2014-Oct-20 22:56N 32°19' W 043°53'0 3.9 25.4
2014-Oct-20 22:52N 32°19' W 043°54'0 0.0 25.4
2014-Oct-20 22:09N 32°19' W 043°54'0 3.9 25.4
2014-Oct-20 22:02N 32°19' W 043°54'0 0.0 25.4
2014-Oct-20 21:32N 32°19' W 043°54'1 1.0 25.4
2014-Oct-20 20:54N 32°19' W 043°55'1 8.4 25.4
2014-Oct-20 20:49N 32°19' W 043°56'0 0.0 25.4
2014-Oct-20 20:22N 32°19' W 043°56'0 0.0 25.4
2014-Oct-20 19:54N 32°19' W 043°56'0 0.4 25.3
2014-Oct-20 19:13N 32°19' W 043°56'0 6.1 25.3
2014-Oct-20 19:11N 32°19' W 043°56'1 1.2 25.3
2014-Oct-20 18:10N 32°19' W 043°57'2 3.3 25.3
2014-Oct-20 17:35N 32°18' W 043°55'0 0.3 25.3
2014-Oct-20 17:12N 32°18' W 043°56'1 0.8 25.3
2014-Oct-20 15:32N 32°17' W 043°57'2 1.2 25.3
2014-Oct-20 14:06N 32°15' W 043°55'1 0.7 25.3
2014-Oct-20 13:11N 32°15' W 043°56'0 0.0 25.3
2014-Oct-20 12:24N 32°15' W 043°56'1 8.7 25.3
2014-Oct-20 12:17N 32°14' W 043°55'0 0.0 25.3
2014-Oct-20 11:38N 32°14' W 043°55'0 1.6 25.3
2014-Oct-20 11:29N 32°14' W 043°55'0 0.0
2014-Oct-20 10:12N 32°14' W 043°55'0 7.0 25.3
2014-Oct-20 10:09N 32°14' W 043°55'0 0.6 25.3
2014-Oct-20 09:53N 32°14' W 043°55'1 1.3 25.3
2014-Oct-20 09:28N 32°14' W 043°54'1 1.3 25.3
2014-Oct-20 08:33N 32°14' W 043°53'1 3.5 25.3
2014-Oct-20 08:13N 32°14' W 043°54'1 2.5 25.3
2014-Oct-20 07:44N 32°15' W 043°53'0 0.0 25.4
2014-Oct-20 07:25N 32°15' W 043°53'0 0.0 25.4
2014-Oct-20 06:53N 32°15' W 043°53'0 0.8 25.4
2014-Oct-20 06:30N 32°15' W 043°53'0 0.0
2014-Oct-20 06:08N 32°15' W 043°53'0 0.9 25.4
2014-Oct-20 05:43N 32°15' W 043°53'115.6 25.4
2014-Oct-20 05:40N 32°16' W 043°53'2 0.4 25.4
2014-Oct-20 01:42N 32°17' W 043°54'110.1 25.4
2014-Oct-20 01:39N 32°17' W 043°55'0 0.2 25.4
2014-Oct-20 00:54N 32°17' W 043°55'1 1.8 25.4
2014-Oct-20 00:06N 32°17' W 043°56'1 5.7 25.4
2014-Oct-19 23:59N 32°17' W 043°56'0 0.0 25.4
2014-Oct-19 23:18N 32°17' W 043°56'2 2.0 25.4
2014-Oct-19 22:24N 32°16' W 043°58'1 2.5 25.4
2014-Oct-19 21:52N 32°15' W 043°59'0 0.0 25.4
2014-Oct-19 20:52N 32°15' W 043°59'1 1.6 25.4
2014-Oct-19 20:18N 32°14' W 043°59'1 9.3 25.4
2014-Oct-19 20:12N 32°15' W 043°59'2 1.9 25.4
2014-Oct-19 19:23N 32°14' W 044°00'0 0.0 25.4
2014-Oct-19 18:36N 32°14' W 044°00'1 1.3 25.4
2014-Oct-19 17:44N 32°13' W 044°00'0 0.6 25.4
2014-Oct-19 17:23N 32°13' W 044°00'2 0.9 25.4
2014-Oct-19 15:41N 32°11' W 043°60'2 1.5 25.4
2014-Oct-19 14:27N 32°10' W 043°58'1 0.9 25.4
2014-Oct-19 13:38N 32°10' W 043°57'0 0.1 25.4
2014-Oct-19 12:48N 32°10' W 043°57'0 0.9 25.4
2014-Oct-19 12:41N 32°10' W 043°57'0 7.1 25.4
2014-Oct-19 12:38N 32°10' W 043°57'1 1.1 25.4
2014-Oct-19 11:51N 32°11' W 043°56'0 0.0 25.4
2014-Oct-19 10:58N 32°11' W 043°56'1 1.5 25.3
2014-Oct-19 10:35N 32°11' W 043°56'1 2.7 25.4
2014-Oct-19 10:22N 32°11' W 043°56'1 0.9 25.4
2014-Oct-19 09:41N 32°11' W 043°56'1 1.9 25.4
2014-Oct-19 08:55N 32°12' W 043°55'0 0.0 25.4
2014-Oct-19 08:46N 32°12' W 043°55'0 0.0 25.4
2014-Oct-19 08:00N 32°12' W 043°55'1 0.8 25.4
2014-Oct-19 07:20N 32°12' W 043°55'0 1.4 25.4
2014-Oct-19 07:04N 32°12' W 043°55'1 1.7 25.4
2014-Oct-19 06:21N 32°13' W 043°55'0 1.1 25.4
2014-Oct-19 05:58N 32°13' W 043°55'0 4.1 25.4
2014-Oct-19 05:55N 32°13' W 043°55'119.9 25.4
2014-Oct-19 05:51N 32°14' W 043°56'0 0.0 25.4
2014-Oct-19 04:13N 32°14' W 043°56'2 1.1 25.4
2014-Oct-19 01:59N 32°15' W 043°58'0 0.3 25.4
2014-Oct-19 01:17N 32°16' W 043°58'0 0.0 25.4
2014-Oct-19 00:27N 32°16' W 043°58'2 1.8 25.4
2014-Oct-18 23:37N 32°15' W 044°00'0 1.8 25.4
2014-Oct-18 23:30N 32°15' W 044°00'0 0.0 25.4
2014-Oct-18 23:10N 32°15' W 044°00'1 1.8 25.4
2014-Oct-18 22:47N 32°16' W 044°01'317.1 25.4
2014-Oct-18 22:38N 32°14' W 044°03'0 0.0 25.4
2014-Oct-18 21:32N 32°14' W 044°03'0 0.1 25.4
2014-Oct-18 20:42N 32°14' W 044°03'1 0.9 25.4
2014-Oct-18 19:47N 32°13' W 044°04'211.2 25.4
2014-Oct-18 19:38N 32°12' W 044°05'0 0.0 25.4
2014-Oct-18 18:58N 32°12' W 044°05'0 0.0 25.4
2014-Oct-18 17:58N 32°12' W 044°05'1 2.0 25.4
2014-Oct-18 17:33N 32°11' W 044°04'114.3 25.4
2014-Oct-18 17:27N 32°10' W 044°04'0 0.0 25.4
2014-Oct-18 15:53N 32°10' W 044°04'2 1.4 25.4
2014-Oct-18 14:45N 32°09' W 044°02'0 0.0 25.4
2014-Oct-18 13:57N 32°09' W 044°02'1 1.2 25.4
2014-Oct-18 12:58N 32°09' W 044°01'1 1.1 25.4
2014-Oct-18 12:12N 32°10' W 043°60'0 0.2 25.4
2014-Oct-18 11:27N 32°10' W 043°60'222.8 25.3
2014-Oct-18 11:22N 32°11' W 043°58'0 0.1 25.3
2014-Oct-18 09:26N 32°11' W 043°58'1 7.4 25.3
2014-Oct-18 09:17N 32°12' W 043°58'122.2 25.3
2014-Oct-18 09:14N 32°11' W 043°58'1 1.1 25.3
2014-Oct-18 08:11N 32°12' W 043°58'1 6.6 25.3
2014-Oct-18 08:06N 32°13' W 043°58'0 0.0 25.3
2014-Oct-18 07:41N 32°13' W 043°58'0 2.5 25.3
2014-Oct-18 07:35N 32°13' W 043°58'1 1.2 25.3
2014-Oct-18 06:33N 32°14' W 043°59'0 5.9 25.3
2014-Oct-18 06:28N 32°14' W 043°59'0 0.0 25.3
2014-Oct-18 06:10N 32°14' W 043°59'0 0.0 25.3
2014-Oct-18 06:06N 32°14' W 043°59'245.4 25.3
2014-Oct-18 06:03N 32°15' W 044°01'3 0.7 25.3
2014-Oct-18 01:37N 32°16' W 044°05'0 0.0 25.4
2014-Oct-18 00:45N 32°16' W 044°05'2 2.4 25.4
2014-Oct-17 23:52N 32°15' W 044°08'0 0.0 25.4
2014-Oct-17 23:07N 32°15' W 044°08'215.1 25.4
2014-Oct-17 22:58N 32°13' W 044°09'0 0.0 25.4
2014-Oct-17 22:14N 32°13' W 044°09'0 0.0 25.4
2014-Oct-17 21:06N 32°13' W 044°09'1 1.4 25.4
2014-Oct-17 20:16N 32°12' W 044°10'0 0.0 25.4
2014-Oct-17 19:49N 32°12' W 044°10'1 3.3 25.4
2014-Oct-17 19:28N 32°12' W 044°11'1 0.6 25.4
2014-Oct-17 18:09N 32°11' W 044°10'0 2.6 25.4
2014-Oct-17 18:06N 32°11' W 044°10'2 5.7 25.4
2014-Oct-17 17:44N 32°09' W 044°09'0 0.0 25.4
2014-Oct-17 16:05N 32°09' W 044°09'2 1.6 25.4
2014-Oct-17 15:04N 32°09' W 044°07'0 0.0 25.4
2014-Oct-17 14:19N 32°09' W 044°07'1 0.5 25.4
2014-Oct-17 12:43N 32°10' W 044°06'1 6.6 25.3
2014-Oct-17 12:32N 32°11' W 044°05'0 0.1 25.3
2014-Oct-17 11:44N 32°11' W 044°05'236.3 25.3
2014-Oct-17 11:41N 32°12' W 044°05'0 0.0 25.3
2014-Oct-17 09:59N 32°12' W 044°05'0 0.0 25.3
2014-Oct-17 09:50N 32°12' W 044°05'221.7 25.3
2014-Oct-17 09:45N 32°14' W 044°05'0 0.0 25.3
2014-Oct-17 08:26N 32°14' W 044°05'0 1.6 25.3
2014-Oct-17 08:23N 32°14' W 044°05'236.1 25.3
2014-Oct-17 08:19N 32°16' W 044°08'211.7 25.3
2014-Oct-17 08:08N 32°14' W 044°05'2128.6 25.3
2014-Oct-17 08:07N 32°16' W 044°08'1 0.4 25.3
2014-Oct-17 06:43N 32°16' W 044°08'0 0.0 25.3
2014-Oct-17 06:21N 32°16' W 044°08'318.7 25.3
2014-Oct-17 06:12N 32°17' W 044°11'0 0.0 25.3
2014-Oct-17 04:42N 32°17' W 044°11'0 0.9 25.3
2014-Oct-17 04:38N 32°17' W 044°11'543.1 25.3
2014-Oct-17 04:31N 32°17' W 044°17'0 0.0 25.3
2014-Oct-17 01:52N 32°17' W 044°17'0 0.0 25.3
2014-Oct-17 01:08N 32°17' W 044°17'1 4.0 25.3
2014-Oct-17 00:59N 32°17' W 044°18'2 2.5 25.3
2014-Oct-17 00:19N 32°16' W 044°19'0 0.0 25.3
2014-Oct-16 23:28N 32°16' W 044°19'218.0 25.3
2014-Oct-16 23:21N 32°15' W 044°21'0 0.0 25.3
2014-Oct-16 22:38N 32°15' W 044°21'0 0.0 25.3
2014-Oct-16 22:34N 32°15' W 044°21'0 0.0 25.3
2014-Oct-16 21:30N 32°15' W 044°21'1 1.4 25.3
2014-Oct-16 20:45N 32°14' W 044°21'2 2.3 25.3
2014-Oct-16 19:59N 32°12' W 044°23'0 0.0 25.3
2014-Oct-16 18:14N 32°12' W 044°23'0 4.4 25.4
2014-Oct-16 18:08N 32°12' W 044°22'2 0.3 25.4
2014-Oct-16 12:08N 32°13' W 044°20'0 3.9 25.2
2014-Oct-16 12:05N 32°13' W 044°20'222.5 25.2
2014-Oct-16 11:59N 32°15' W 044°21'0 0.0 25.2
2014-Oct-16 11:11N 32°15' W 044°21'0 0.0 25.2
2014-Oct-16 10:18N 32°15' W 044°21'4 2.3 25.2
2014-Oct-16 08:29N 32°18' W 044°23'0 0.3 25.2
2014-Oct-16 06:54N 32°18' W 044°23'3 1.6 25.2
2014-Oct-16 04:53N 32°19' W 044°27'5 1.5 25.1
2014-Oct-16 01:23N 32°18' W 044°33'1 1.6 25.1
2014-Oct-16 00:40N 32°17' W 044°34'3 1.1 25.1
2014-Oct-15 22:06N 32°14' W 044°34'1 0.7 25.2
2014-Oct-15 20:11N 32°13' W 044°35'0 0.1 25.2
2014-Oct-15 18:31N 32°13' W 044°35'1 3.3 25.2
2014-Oct-15 18:06N 32°14' W 044°33'1 0.5 25.2
2014-Oct-15 16:28N 32°13' W 044°33'0 7.6 25.2
2014-Oct-15 16:26N 32°13' W 044°32'1 0.8 25.2
2014-Oct-15 14:44N 32°14' W 044°31'1 1.1 25.2
2014-Oct-15 13:24N 32°15' W 044°30'1 4.6 25.2
2014-Oct-15 13:13N 32°16' W 044°30'0 0.0 25.2
2014-Oct-15 12:29N 32°16' W 044°30'0 3.8 25.2
2014-Oct-15 12:25N 32°16' W 044°30'236.5 25.2
2014-Oct-15 12:22N 32°18' W 044°29'3 1.8 25.2
2014-Oct-15 10:36N 32°21' W 044°31'0 0.0 25.2
2014-Oct-15 09:11N 32°21' W 044°31'1 2.4 25.2
2014-Oct-15 08:56N 32°21' W 044°30'1 6.3 25.2
2014-Oct-15 08:46N 32°21' W 044°31'3 1.7 25.2
2014-Oct-15 07:06N 32°23' W 044°34'1 5.2 25.2
2014-Oct-15 06:59N 32°23' W 044°34'0 0.0 25.2
2014-Oct-15 06:45N 32°23' W 044°34'317.1 25.2
2014-Oct-15 06:36N 32°23' W 044°37'3 1.0 25.2
2014-Oct-15 03:18N 32°22' W 044°41'1 0.7 25.3
2014-Oct-15 01:43N 32°21' W 044°41'1 1.7 25.3
2014-Oct-15 00:55N 32°20' W 044°42'0 0.0 25.3
2014-Oct-15 00:10N 32°20' W 044°42'0 0.0 25.3
2014-Oct-14 23:31N 32°20' W 044°42'1 2.5 25.4
2014-Oct-14 23:12N 32°19' W 044°42'0 0.0 25.4
2014-Oct-14 22:29N 32°19' W 044°42'2 1.3 25.4
2014-Oct-14 20:40N 32°18' W 044°40'1 0.6 25.4
2014-Oct-14 18:58N 32°18' W 044°39'0 1.1 25.5
2014-Oct-14 18:44N 32°18' W 044°39'1 2.3 25.5
2014-Oct-14 18:14N 32°18' W 044°38'4127.8 25.5
2014-Oct-14 18:12N 32°21' W 044°34'0 0.0 25.5
2014-Oct-14 16:37N 32°21' W 044°34'0 0.0 25.5
2014-Oct-14 14:56N 32°21' W 044°34'2 5.3 25.6
2014-Oct-14 14:29N 32°24' W 044°33'0 0.0 25.7
2014-Oct-14 13:41N 32°24' W 044°33'324.7 25.7
2014-Oct-14 13:34N 32°26' W 044°34'0 0.0 25.7
2014-Oct-14 12:47N 32°26' W 044°34'0 0.0 25.7
2014-Oct-14 12:42N 32°26' W 044°34'2 2.1 25.7
2014-Oct-14 11:56N 32°28' W 044°35'3 3.7 25.7
2014-Oct-14 11:09N 32°30' W 044°37'0 0.1 25.7
2014-Oct-14 09:24N 32°30' W 044°37'1 5.4 25.8
2014-Oct-14 09:13N 32°31' W 044°38'0 0.0
2014-Oct-14 08:59N 32°31' W 044°38'0 1.5 25.9
2014-Oct-14 08:57N 32°31' W 044°38'112.8 25.9
2014-Oct-14 08:50N 32°31' W 044°40'0 0.0 25.9
2014-Oct-14 07:58N 32°31' W 044°40'1 4.1 25.9
2014-Oct-14 07:42N 32°32' W 044°41'1 1.3 25.9
2014-Oct-14 07:17N 32°32' W 044°41'1 2.5 25.9
2014-Oct-14 06:54N 32°32' W 044°42'5 3.1 25.9
2014-Oct-14 05:13N 32°30' W 044°48'0 0.0 26.0
2014-Oct-14 05:04N 32°30' W 044°48'2 1.3 26.0
2014-Oct-14 03:27N 32°30' W 044°50'0 0.0 26.0
2014-Oct-14 02:07N 32°30' W 044°50'1 1.7 26.1
2014-Oct-14 01:17N 32°30' W 044°52'0 0.0 26.1
2014-Oct-14 00:27N 32°30' W 044°52'3 4.0 26.1
2014-Oct-13 23:41N 32°30' W 044°56'0 0.0 26.1
2014-Oct-13 23:32N 32°30' W 044°56'0 0.0 26.1
2014-Oct-13 22:49N 32°30' W 044°56'0 0.0 26.1
2014-Oct-13 22:44N 32°30' W 044°56'0 0.0 26.1
2014-Oct-13 22:30N 32°30' W 044°56'0 0.0 26.1
2014-Oct-13 21:06N 32°30' W 044°56'0 0.9 26.2
2014-Oct-13 20:34N 32°30' W 044°56'1 0.9 26.2
2014-Oct-13 19:26N 32°30' W 044°57'1 1.8 26.3
2014-Oct-13 18:54N 32°29' W 044°59'1 2.5 26.3
2014-Oct-13 18:23N 32°30' W 044°60'0 0.0 26.3
2014-Oct-13 17:41N 32°30' W 044°60'0 0.5 26.3
2014-Oct-13 17:12N 32°30' W 044°60'1 1.6 26.3
2014-Oct-13 16:49N 32°30' W 044°59'2 1.4 26.3
2014-Oct-13 15:07N 32°30' W 045°02'1 1.7 26.2
2014-Oct-13 14:49N 32°30' W 045°02'0 0.1 26.2
2014-Oct-13 14:00N 32°30' W 045°02'2 0.9 26.2
2014-Oct-13 12:21N 32°30' W 045°04'1 4.3 26.2
2014-Oct-13 12:13N 32°30' W 045°05'0 0.2
2014-Oct-13 11:28N 32°30' W 045°04'227.1 26.2
2014-Oct-13 11:24N 32°31' W 045°06'0 0.0 26.2
2014-Oct-13 10:13N 32°31' W 045°06'0 0.0 26.2
2014-Oct-13 09:48N 32°31' W 045°06'1 9.3 26.2
2014-Oct-13 09:43N 32°31' W 045°07'0 0.1 26.2
2014-Oct-13 09:09N 32°31' W 045°07'111.7 26.2
2014-Oct-13 09:02N 32°31' W 045°09'   26.2

Dump ship's entire track history